sensor_id;sensor_type;location;lat;lon;timestamp;temperature;humidity
6018;DHT22;3037;51.068;13.780;2022-12-26T00:01:46;11.00;99.90
6018;DHT22;3037;51.068;13.780;2022-12-26T00:04:12;11.00;99.90
6018;DHT22;3037;51.068;13.780;2022-12-26T00:06:38;11.00;99.90
6018;DHT22;3037;51.068;13.780;2022-12-26T00:09:05;11.00;99.90
6018;DHT22;3037;51.068;13.780;2022-12-26T00:11:31;11.30;99.90
6018;DHT22;3037;51.068;13.780;2022-12-26T00:13:59;11.00;99.90
6018;DHT22;3037;51.068;13.780;2022-12-26T00:16:25;10.90;99.90
6018;DHT22;3037;51.068;13.780;2022-12-26T00:18:51;10.90;99.90
6018;DHT22;3037;51.068;13.780;2022-12-26T00:21:17;10.90;99.90
6018;DHT22;3037;51.068;13.780;2022-12-26T00:23:43;11.00;99.90
6018;DHT22;3037;51.068;13.780;2022-12-26T00:26:11;11.10;99.90
6018;DHT22;3037;51.068;13.780;2022-12-26T00:28:37;11.20;99.90
6018;DHT22;3037;51.068;13.780;2022-12-26T00:31:05;11.20;99.90
6018;DHT22;3037;51.068;13.780;2022-12-26T00:33:32;11.20;99.90
6018;DHT22;3037;51.068;13.780;2022-12-26T00:36:12;11.20;99.90
6018;DHT22;3037;51.068;13.780;2022-12-26T00:38:39;11.10;99.90
6018;DHT22;3037;51.068;13.780;2022-12-26T00:41:06;11.10;99.90
6018;DHT22;3037;51.068;13.780;2022-12-26T00:43:31;11.20;99.90
6018;DHT22;3037;51.068;13.780;2022-12-26T00:45:57;11.20;99.90
6018;DHT22;3037;51.068;13.780;2022-12-26T00:48:23;11.10;99.90
6018;DHT22;3037;51.068;13.780;2022-12-26T00:50:48;11.20;99.90
6018;DHT22;3037;51.068;13.780;2022-12-26T00:53:14;11.20;99.90
6018;DHT22;3037;51.068;13.780;2022-12-26T00:55:39;11.20;99.90
6018;DHT22;3037;51.068;13.780;2022-12-26T00:58:05;11.20;99.90
6018;DHT22;3037;51.068;13.780;2022-12-26T01:00:31;11.20;99.90
6018;DHT22;3037;51.068;13.780;2022-12-26T01:02:57;11.10;99.90
6018;DHT22;3037;51.068;13.780;2022-12-26T01:05:22;11.10;99.90
6018;DHT22;3037;51.068;13.780;2022-12-26T01:07:48;11.00;99.90
6018;DHT22;3037;51.068;13.780;2022-12-26T01:10:14;11.00;99.90
6018;DHT22;3037;51.068;13.780;2022-12-26T01:12:39;11.10;99.90
6018;DHT22;3037;51.068;13.780;2022-12-26T01:15:05;11.10;99.90
6018;DHT22;3037;51.068;13.780;2022-12-26T01:17:32;11.10;99.90
6018;DHT22;3037;51.068;13.780;2022-12-26T01:19:58;11.10;99.90
6018;DHT22;3037;51.068;13.780;2022-12-26T01:22:24;11.10;99.90
6018;DHT22;3037;51.068;13.780;2022-12-26T01:24:54;11.00;99.90
6018;DHT22;3037;51.068;13.780;2022-12-26T01:27:20;11.00;99.90
6018;DHT22;3037;51.068;13.780;2022-12-26T01:29:46;11.10;99.90
6018;DHT22;3037;51.068;13.780;2022-12-26T01:32:11;11.10;99.90
6018;DHT22;3037;51.068;13.780;2022-12-26T01:34:37;11.10;99.90
6018;DHT22;3037;51.068;13.780;2022-12-26T01:37:02;10.90;99.90
6018;DHT22;3037;51.068;13.780;2022-12-26T01:39:28;11.00;99.90
6018;DHT22;3037;51.068;13.780;2022-12-26T01:41:53;11.00;99.90
6018;DHT22;3037;51.068;13.780;2022-12-26T01:47:24;11.00;99.90
6018;DHT22;3037;51.068;13.780;2022-12-26T01:49:52;10.90;99.90
6018;DHT22;3037;51.068;13.780;2022-12-26T01:52:31;10.90;99.90
6018;DHT22;3037;51.068;13.780;2022-12-26T01:54:58;10.90;99.90
6018;DHT22;3037;51.068;13.780;2022-12-26T01:57:32;10.90;99.90
6018;DHT22;3037;51.068;13.780;2022-12-26T02:00:00;10.90;99.90
6018;DHT22;3037;51.068;13.780;2022-12-26T02:02:27;11.10;99.90
6018;DHT22;3037;51.068;13.780;2022-12-26T02:04:53;11.00;99.90
6018;DHT22;3037;51.068;13.780;2022-12-26T02:07:41;11.10;99.90
6018;DHT22;3037;51.068;13.780;2022-12-26T02:10:13;11.10;99.90
6018;DHT22;3037;51.068;13.780;2022-12-26T02:12:40;11.20;99.90
6018;DHT22;3037;51.068;13.780;2022-12-26T02:15:10;11.30;99.90
6018;DHT22;3037;51.068;13.780;2022-12-26T02:17:37;11.30;99.90
6018;DHT22;3037;51.068;13.780;2022-12-26T02:20:26;11.30;99.90
6018;DHT22;3037;51.068;13.780;2022-12-26T02:23:36;11.20;99.90
6018;DHT22;3037;51.068;13.780;2022-12-26T02:32:08;11.20;99.90
6018;DHT22;3037;51.068;13.780;2022-12-26T02:43:20;11.10;99.90
6018;DHT22;3037;51.068;13.780;2022-12-26T02:51:55;11.10;99.90
6018;DHT22;3037;51.068;13.780;2022-12-26T02:54:48;11.00;99.90
6018;DHT22;3037;51.068;13.780;2022-12-26T02:57:44;11.00;99.90
6018;DHT22;3037;51.068;13.780;2022-12-26T03:00:32;11.00;99.90
6018;DHT22;3037;51.068;13.780;2022-12-26T03:03:21;11.20;99.90
6018;DHT22;3037;51.068;13.780;2022-12-26T03:06:14;11.10;99.90
6018;DHT22;3037;51.068;13.780;2022-12-26T03:09:27;10.90;99.90
6018;DHT22;3037;51.068;13.780;2022-12-26T03:15:05;11.00;99.90
6018;DHT22;3037;51.068;13.780;2022-12-26T03:17:39;11.00;99.90
6018;DHT22;3037;51.068;13.780;2022-12-26T03:20:33;11.00;99.90
6018;DHT22;3037;51.068;13.780;2022-12-26T03:23:12;11.10;99.90
6018;DHT22;3037;51.068;13.780;2022-12-26T03:25:55;11.10;99.90
6018;DHT22;3037;51.068;13.780;2022-12-26T03:28:41;11.10;99.90
6018;DHT22;3037;51.068;13.780;2022-12-26T03:31:09;11.20;99.90
6018;DHT22;3037;51.068;13.780;2022-12-26T03:33:41;11.00;99.90
6018;DHT22;3037;51.068;13.780;2022-12-26T03:37:04;11.10;99.90
6018;DHT22;3037;51.068;13.780;2022-12-26T03:39:48;11.20;99.90
6018;DHT22;3037;51.068;13.780;2022-12-26T03:43:02;11.30;99.90
6018;DHT22;3037;51.068;13.780;2022-12-26T03:46:21;11.40;99.90
6018;DHT22;3037;51.068;13.780;2022-12-26T03:49:17;11.40;99.90
6018;DHT22;3037;51.068;13.780;2022-12-26T03:55:42;11.30;99.90
6018;DHT22;3037;51.068;13.780;2022-12-26T03:58:37;11.20;99.90
6018;DHT22;3037;51.068;13.780;2022-12-26T04:01:24;11.30;99.90
6018;DHT22;3037;51.068;13.780;2022-12-26T04:04:12;11.40;99.90
6018;DHT22;3037;51.068;13.780;2022-12-26T04:07:11;11.40;99.90
6018;DHT22;3037;51.068;13.780;2022-12-26T04:10:04;11.30;99.90
6018;DHT22;3037;51.068;13.780;2022-12-26T04:12:51;11.30;99.90
6018;DHT22;3037;51.068;13.780;2022-12-26T04:15:47;11.30;99.90
6018;DHT22;3037;51.068;13.780;2022-12-26T04:19:09;11.20;99.90
6018;DHT22;3037;51.068;13.780;2022-12-26T04:22:06;11.10;99.90
6018;DHT22;3037;51.068;13.780;2022-12-26T04:27:54;11.10;99.90
6018;DHT22;3037;51.068;13.780;2022-12-26T04:30:40;11.10;99.90
6018;DHT22;3037;51.068;13.780;2022-12-26T04:33:32;11.10;99.90
6018;DHT22;3037;51.068;13.780;2022-12-26T04:36:30;11.00;99.90
6018;DHT22;3037;51.068;13.780;2022-12-26T04:39:20;11.00;99.90
6018;DHT22;3037;51.068;13.780;2022-12-26T04:42:06;11.00;99.90
6018;DHT22;3037;51.068;13.780;2022-12-26T04:44:52;11.00;99.90
6018;DHT22;3037;51.068;13.780;2022-12-26T04:47:18;11.10;99.90
6018;DHT22;3037;51.068;13.780;2022-12-26T04:49:44;11.20;99.90
6018;DHT22;3037;51.068;13.780;2022-12-26T04:52:29;11.20;99.90
6018;DHT22;3037;51.068;13.780;2022-12-26T04:55:14;11.30;99.90
6018;DHT22;3037;51.068;13.780;2022-12-26T04:57:40;11.30;99.90
6018;DHT22;3037;51.068;13.780;2022-12-26T05:00:05;11.30;99.90
6018;DHT22;3037;51.068;13.780;2022-12-26T05:02:31;11.30;99.90
6018;DHT22;3037;51.068;13.780;2022-12-26T05:05:15;11.30;99.90
6018;DHT22;3037;51.068;13.780;2022-12-26T05:07:59;11.30;99.90
6018;DHT22;3037;51.068;13.780;2022-12-26T05:10:43;11.60;99.90
6018;DHT22;3037;51.068;13.780;2022-12-26T05:13:09;11.50;99.90
6018;DHT22;3037;51.068;13.780;2022-12-26T05:15:35;11.60;99.90
6018;DHT22;3037;51.068;13.780;2022-12-26T05:18:21;11.70;99.90
6018;DHT22;3037;51.068;13.780;2022-12-26T05:21:09;11.90;99.90
6018;DHT22;3037;51.068;13.780;2022-12-26T05:23:55;11.90;99.90
6018;DHT22;3037;51.068;13.780;2022-12-26T05:26:39;12.10;99.90
6018;DHT22;3037;51.068;13.780;2022-12-26T05:29:24;12.10;99.90
6018;DHT22;3037;51.068;13.780;2022-12-26T05:31:49;12.20;99.90
6018;DHT22;3037;51.068;13.780;2022-12-26T05:34:15;12.20;99.90
6018;DHT22;3037;51.068;13.780;2022-12-26T05:36:48;12.30;99.90
6018;DHT22;3037;51.068;13.780;2022-12-26T05:39:15;12.30;99.90
6018;DHT22;3037;51.068;13.780;2022-12-26T05:41:41;12.30;99.90
6018;DHT22;3037;51.068;13.780;2022-12-26T05:44:08;12.40;99.90
6018;DHT22;3037;51.068;13.780;2022-12-26T05:46:34;12.60;99.90
6018;DHT22;3037;51.068;13.780;2022-12-26T05:48:59;12.70;99.90
6018;DHT22;3037;51.068;13.780;2022-12-26T05:51:25;12.70;99.90
6018;DHT22;3037;51.068;13.780;2022-12-26T05:53:51;12.80;99.90
6018;DHT22;3037;51.068;13.780;2022-12-26T05:56:17;12.80;99.90
6018;DHT22;3037;51.068;13.780;2022-12-26T05:58:43;12.80;99.90
6018;DHT22;3037;51.068;13.780;2022-12-26T06:01:15;13.00;99.90
6018;DHT22;3037;51.068;13.780;2022-12-26T06:03:41;13.00;99.90
6018;DHT22;3037;51.068;13.780;2022-12-26T06:06:08;12.90;99.90
6018;DHT22;3037;51.068;13.780;2022-12-26T06:08:35;12.90;99.90
6018;DHT22;3037;51.068;13.780;2022-12-26T06:11:10;12.90;99.90
6018;DHT22;3037;51.068;13.780;2022-12-26T06:13:37;13.00;99.90
6018;DHT22;3037;51.068;13.780;2022-12-26T06:16:07;13.10;99.90
6018;DHT22;3037;51.068;13.780;2022-12-26T06:18:34;13.00;99.90
6018;DHT22;3037;51.068;13.780;2022-12-26T06:21:06;13.10;99.90
6018;DHT22;3037;51.068;13.780;2022-12-26T06:23:33;13.10;99.90
6018;DHT22;3037;51.068;13.780;2022-12-26T06:25:58;13.00;99.90
6018;DHT22;3037;51.068;13.780;2022-12-26T06:28:24;12.90;99.90
6018;DHT22;3037;51.068;13.780;2022-12-26T06:30:50;13.00;99.90
6018;DHT22;3037;51.068;13.780;2022-12-26T06:33:16;12.90;99.90
6018;DHT22;3037;51.068;13.780;2022-12-26T06:35:42;12.90;99.90
6018;DHT22;3037;51.068;13.780;2022-12-26T06:38:08;12.90;99.90
6018;DHT22;3037;51.068;13.780;2022-12-26T06:40:33;12.90;99.90
6018;DHT22;3037;51.068;13.780;2022-12-26T06:43:01;12.80;99.90
6018;DHT22;3037;51.068;13.780;2022-12-26T06:45:29;12.80;99.90
6018;DHT22;3037;51.068;13.780;2022-12-26T06:47:54;12.70;99.90
6018;DHT22;3037;51.068;13.780;2022-12-26T06:50:20;12.70;99.90
6018;DHT22;3037;51.068;13.780;2022-12-26T06:52:47;12.70;99.90
6018;DHT22;3037;51.068;13.780;2022-12-26T06:55:13;12.80;99.90
6018;DHT22;3037;51.068;13.780;2022-12-26T06:57:38;12.80;99.90
6018;DHT22;3037;51.068;13.780;2022-12-26T07:00:04;12.80;99.90
6018;DHT22;3037;51.068;13.780;2022-12-26T07:02:30;12.90;99.90
6018;DHT22;3037;51.068;13.780;2022-12-26T07:04:55;12.90;99.90
6018;DHT22;3037;51.068;13.780;2022-12-26T07:07:21;12.90;99.90
6018;DHT22;3037;51.068;13.780;2022-12-26T07:09:46;13.00;99.90
6018;DHT22;3037;51.068;13.780;2022-12-26T07:12:12;13.00;99.90
6018;DHT22;3037;51.068;13.780;2022-12-26T07:14:37;13.00;99.90
6018;DHT22;3037;51.068;13.780;2022-12-26T07:17:03;13.00;99.90
6018;DHT22;3037;51.068;13.780;2022-12-26T07:19:28;13.00;99.90
6018;DHT22;3037;51.068;13.780;2022-12-26T07:21:54;13.00;99.90
6018;DHT22;3037;51.068;13.780;2022-12-26T07:24:20;13.00;99.90
6018;DHT22;3037;51.068;13.780;2022-12-26T07:26:46;13.10;99.90
6018;DHT22;3037;51.068;13.780;2022-12-26T07:29:12;13.00;99.90
6018;DHT22;3037;51.068;13.780;2022-12-26T07:31:39;13.00;99.90
6018;DHT22;3037;51.068;13.780;2022-12-26T07:34:05;13.00;99.90
6018;DHT22;3037;51.068;13.780;2022-12-26T07:36:30;12.90;99.90
6018;DHT22;3037;51.068;13.780;2022-12-26T07:38:56;12.80;99.90
6018;DHT22;3037;51.068;13.780;2022-12-26T07:41:22;12.80;99.90
6018;DHT22;3037;51.068;13.780;2022-12-26T07:44:11;12.90;99.90
6018;DHT22;3037;51.068;13.780;2022-12-26T07:46:36;12.90;99.90
6018;DHT22;3037;51.068;13.780;2022-12-26T07:49:03;13.00;99.90
6018;DHT22;3037;51.068;13.780;2022-12-26T07:51:28;13.10;99.90
6018;DHT22;3037;51.068;13.780;2022-12-26T07:53:54;13.00;99.90
6018;DHT22;3037;51.068;13.780;2022-12-26T07:56:20;13.00;99.90
6018;DHT22;3037;51.068;13.780;2022-12-26T07:58:49;13.00;99.90
6018;DHT22;3037;51.068;13.780;2022-12-26T08:01:15;13.10;99.90
6018;DHT22;3037;51.068;13.780;2022-12-26T08:03:40;13.10;99.90
6018;DHT22;3037;51.068;13.780;2022-12-26T08:06:08;13.10;99.90
6018;DHT22;3037;51.068;13.780;2022-12-26T08:08:34;13.10;99.90
6018;DHT22;3037;51.068;13.780;2022-12-26T08:11:00;13.20;99.90
6018;DHT22;3037;51.068;13.780;2022-12-26T08:13:28;13.20;99.90
6018;DHT22;3037;51.068;13.780;2022-12-26T08:15:54;13.30;99.90
6018;DHT22;3037;51.068;13.780;2022-12-26T08:18:20;13.30;99.90
6018;DHT22;3037;51.068;13.780;2022-12-26T08:20:45;13.30;99.90
6018;DHT22;3037;51.068;13.780;2022-12-26T08:23:11;13.40;99.90
6018;DHT22;3037;51.068;13.780;2022-12-26T08:25:36;13.40;99.90
6018;DHT22;3037;51.068;13.780;2022-12-26T08:28:02;13.40;99.90
6018;DHT22;3037;51.068;13.780;2022-12-26T08:30:27;13.40;99.90
6018;DHT22;3037;51.068;13.780;2022-12-26T08:32:53;13.40;99.90
6018;DHT22;3037;51.068;13.780;2022-12-26T08:35:18;13.60;99.90
6018;DHT22;3037;51.068;13.780;2022-12-26T08:37:46;13.60;99.90
6018;DHT22;3037;51.068;13.780;2022-12-26T08:40:11;13.60;99.90
6018;DHT22;3037;51.068;13.780;2022-12-26T08:42:37;13.60;99.90
6018;DHT22;3037;51.068;13.780;2022-12-26T08:45:02;13.70;99.90
6018;DHT22;3037;51.068;13.780;2022-12-26T08:47:28;13.70;99.90
6018;DHT22;3037;51.068;13.780;2022-12-26T08:49:53;13.70;99.90
6018;DHT22;3037;51.068;13.780;2022-12-26T08:52:19;13.60;99.90
6018;DHT22;3037;51.068;13.780;2022-12-26T08:54:44;13.60;99.90
6018;DHT22;3037;51.068;13.780;2022-12-26T08:57:10;13.70;99.90
6018;DHT22;3037;51.068;13.780;2022-12-26T08:59:35;13.70;99.90
6018;DHT22;3037;51.068;13.780;2022-12-26T09:02:01;13.80;99.90
6018;DHT22;3037;51.068;13.780;2022-12-26T09:04:26;13.90;99.90
6018;DHT22;3037;51.068;13.780;2022-12-26T09:06:52;13.90;99.90
6018;DHT22;3037;51.068;13.780;2022-12-26T09:09:17;14.00;99.90
6018;DHT22;3037;51.068;13.780;2022-12-26T09:11:43;14.10;99.40
6018;DHT22;3037;51.068;13.780;2022-12-26T09:14:10;14.10;99.50
6018;DHT22;3037;51.068;13.780;2022-12-26T09:16:39;14.20;98.90
6018;DHT22;3037;51.068;13.780;2022-12-26T09:19:09;14.30;98.00
6018;DHT22;3037;51.068;13.780;2022-12-26T09:21:36;14.30;97.80
6018;DHT22;3037;51.068;13.780;2022-12-26T09:24:05;14.80;96.50
6018;DHT22;3037;51.068;13.780;2022-12-26T09:26:31;15.30;92.80
6018;DHT22;3037;51.068;13.780;2022-12-26T09:28:58;15.00;93.40
6018;DHT22;3037;51.068;13.780;2022-12-26T09:31:25;15.30;91.70
6018;DHT22;3037;51.068;13.780;2022-12-26T09:33:51;17.70;67.60
6018;DHT22;3037;51.068;13.780;2022-12-26T09:36:20;21.00;26.50
6018;DHT22;3037;51.068;13.780;2022-12-26T09:38:47;24.10;1.00
6018;DHT22;3037;51.068;13.780;2022-12-26T09:49:37;16.90;36.90
6018;DHT22;3037;51.068;13.780;2022-12-26T09:52:21;16.60;47.20
6018;DHT22;3037;51.068;13.780;2022-12-26T09:54:51;16.10;56.80
6018;DHT22;3037;51.068;13.780;2022-12-26T09:57:36;15.80;65.70
6018;DHT22;3037;51.068;13.780;2022-12-26T10:00:05;15.40;72.40
6018;DHT22;3037;51.068;13.780;2022-12-26T10:02:31;15.20;78.90
6018;DHT22;3037;51.068;13.780;2022-12-26T10:04:59;15.20;81.30
6018;DHT22;3037;51.068;13.780;2022-12-26T10:07:45;15.10;82.50
6018;DHT22;3037;51.068;13.780;2022-12-26T10:10:18;14.80;87.90
6018;DHT22;3037;51.068;13.780;2022-12-26T10:15:40;14.70;91.10
6018;DHT22;3037;51.068;13.780;2022-12-26T10:18:51;14.70;90.60
6018;DHT22;3037;51.068;13.780;2022-12-26T10:21:42;14.80;90.60
6018;DHT22;3037;51.068;13.780;2022-12-26T10:24:15;14.50;93.90
6018;DHT22;3037;51.068;13.780;2022-12-26T10:26:47;14.40;96.10
6018;DHT22;3037;51.068;13.780;2022-12-26T10:29:28;14.30;97.40
6018;DHT22;3037;51.068;13.780;2022-12-26T10:32:04;14.30;97.80
6018;DHT22;3037;51.068;13.780;2022-12-26T10:34:45;14.30;97.70
6018;DHT22;3037;51.068;13.780;2022-12-26T10:42:44;14.40;98.10
6018;DHT22;3037;51.068;13.780;2022-12-26T10:45:32;14.50;98.70
6018;DHT22;3037;51.068;13.780;2022-12-26T10:47:59;14.70;97.00
6018;DHT22;3037;51.068;13.780;2022-12-26T10:50:28;14.80;95.70
6018;DHT22;3037;51.068;13.780;2022-12-26T10:52:55;14.90;94.90
6018;DHT22;3037;51.068;13.780;2022-12-26T10:55:26;15.00;94.10
6018;DHT22;3037;51.068;13.780;2022-12-26T10:57:53;15.50;91.90
6018;DHT22;3037;51.068;13.780;2022-12-26T11:03:05;16.70;78.20
6018;DHT22;3037;51.068;13.780;2022-12-26T11:05:31;16.40;77.60
6018;DHT22;3037;51.068;13.780;2022-12-26T11:08:14;16.00;83.40
6018;DHT22;3037;51.068;13.780;2022-12-26T11:10:44;15.90;84.20
6018;DHT22;3037;51.068;13.780;2022-12-26T11:13:18;16.20;82.90
6018;DHT22;3037;51.068;13.780;2022-12-26T11:15:50;16.40;79.50
6018;DHT22;3037;51.068;13.780;2022-12-26T11:18:26;16.10;81.20
6018;DHT22;3037;51.068;13.780;2022-12-26T11:21:18;16.10;80.20
6018;DHT22;3037;51.068;13.780;2022-12-26T11:23:46;15.90;81.70
6018;DHT22;3037;51.068;13.780;2022-12-26T11:29:08;15.80;83.80
6018;DHT22;3037;51.068;13.780;2022-12-26T11:31:34;15.70;83.10
6018;DHT22;3037;51.068;13.780;2022-12-26T11:34:06;15.70;84.70
6018;DHT22;3037;51.068;13.780;2022-12-26T11:36:31;15.70;85.20
6018;DHT22;3037;51.068;13.780;2022-12-26T11:39:05;15.80;83.70
6018;DHT22;3037;51.068;13.780;2022-12-26T11:41:37;16.00;82.40
6018;DHT22;3037;51.068;13.780;2022-12-26T11:47:12;15.90;80.20
6018;DHT22;3037;51.068;13.780;2022-12-26T11:49:58;15.80;81.20
6018;DHT22;3037;51.068;13.780;2022-12-26T11:52:42;15.80;80.70
6018;DHT22;3037;51.068;13.780;2022-12-26T11:55:29;15.50;84.20
6018;DHT22;3037;51.068;13.780;2022-12-26T12:00:41;15.30;87.20
6018;DHT22;3037;51.068;13.780;2022-12-26T12:19:18;14.40;93.00
6018;DHT22;3037;51.068;13.780;2022-12-26T12:24:51;14.40;94.20
6018;DHT22;3037;51.068;13.780;2022-12-26T12:27:38;14.30;94.20
6018;DHT22;3037;51.068;13.780;2022-12-26T12:32:57;14.00;96.60
6018;DHT22;3037;51.068;13.780;2022-12-26T12:35:58;14.10;97.30
6018;DHT22;3037;51.068;13.780;2022-12-26T12:38:32;14.00;97.40
6018;DHT22;3037;51.068;13.780;2022-12-26T12:43:47;14.00;98.10
6018;DHT22;3037;51.068;13.780;2022-12-26T12:46:37;13.90;98.10
6018;DHT22;3037;51.068;13.780;2022-12-26T12:49:20;13.90;98.40
6018;DHT22;3037;51.068;13.780;2022-12-26T12:51:59;13.80;99.70
6018;DHT22;3037;51.068;13.780;2022-12-26T13:02:36;13.80;99.90
6018;DHT22;3037;51.068;13.780;2022-12-26T13:08:16;13.50;99.90
6018;DHT22;3037;51.068;13.780;2022-12-26T13:10:52;13.60;99.90
6018;DHT22;3037;51.068;13.780;2022-12-26T13:16:21;12.10;99.90
6018;DHT22;3037;51.068;13.780;2022-12-26T13:18:52;11.60;99.90
6018;DHT22;3037;51.068;13.780;2022-12-26T13:21:20;11.30;99.90
6018;DHT22;3037;51.068;13.780;2022-12-26T13:23:56;11.20;99.90
6018;DHT22;3037;51.068;13.780;2022-12-26T13:27:08;11.20;99.90
6018;DHT22;3037;51.068;13.780;2022-12-26T13:29:40;11.10;99.90
6018;DHT22;3037;51.068;13.780;2022-12-26T13:32:22;10.90;99.90
6018;DHT22;3037;51.068;13.780;2022-12-26T13:34:49;10.90;99.90
6018;DHT22;3037;51.068;13.780;2022-12-26T13:40:15;11.00;99.90
6018;DHT22;3037;51.068;13.780;2022-12-26T13:43:06;11.30;99.90
6018;DHT22;3037;51.068;13.780;2022-12-26T13:45:54;11.10;99.90
6018;DHT22;3037;51.068;13.780;2022-12-26T13:51:03;11.10;99.90
6018;DHT22;3037;51.068;13.780;2022-12-26T13:53:39;11.30;99.90
6018;DHT22;3037;51.068;13.780;2022-12-26T13:58:57;12.40;99.90
6018;DHT22;3037;51.068;13.780;2022-12-26T14:04:29;12.00;99.90
6018;DHT22;3037;51.068;13.780;2022-12-26T14:12:58;11.10;99.90
6018;DHT22;3037;51.068;13.780;2022-12-26T14:15:50;11.00;99.90
6018;DHT22;3037;51.068;13.780;2022-12-26T14:18:48;10.80;99.90
6018;DHT22;3037;51.068;13.780;2022-12-26T14:21:24;10.70;99.90
6018;DHT22;3037;51.068;13.780;2022-12-26T14:26:34;10.60;99.90
6018;DHT22;3037;51.068;13.780;2022-12-26T14:32:12;10.60;99.90
6018;DHT22;3037;51.068;13.780;2022-12-26T14:38:04;10.50;99.90
6018;DHT22;3037;51.068;13.780;2022-12-26T14:40:36;10.40;99.90
6018;DHT22;3037;51.068;13.780;2022-12-26T14:43:30;10.40;99.90
6018;DHT22;3037;51.068;13.780;2022-12-26T14:45:56;10.50;99.90
6018;DHT22;3037;51.068;13.780;2022-12-26T14:56:28;10.60;99.90
6018;DHT22;3037;51.068;13.780;2022-12-26T14:59:18;10.50;99.90
6018;DHT22;3037;51.068;13.780;2022-12-26T15:04:46;10.60;99.90
6018;DHT22;3037;51.068;13.780;2022-12-26T15:16:15;10.70;99.90
6018;DHT22;3037;51.068;13.780;2022-12-26T15:21:49;10.60;99.90
6018;DHT22;3037;51.068;13.780;2022-12-26T15:24:53;10.60;99.90
6018;DHT22;3037;51.068;13.780;2022-12-26T15:28:01;10.90;99.90
6018;DHT22;3037;51.068;13.780;2022-12-26T15:34:08;11.50;99.90
6018;DHT22;3037;51.068;13.780;2022-12-26T15:42:19;11.90;99.90
6018;DHT22;3037;51.068;13.780;2022-12-26T15:45:09;11.30;99.90
6018;DHT22;3037;51.068;13.780;2022-12-26T15:47:49;11.00;99.90
6018;DHT22;3037;51.068;13.780;2022-12-26T15:53:21;11.90;99.90
6018;DHT22;3037;51.068;13.780;2022-12-26T15:59:29;12.10;99.90
6018;DHT22;3037;51.068;13.780;2022-12-26T16:01:59;11.90;99.90
6018;DHT22;3037;51.068;13.780;2022-12-26T16:04:32;11.70;99.90
6018;DHT22;3037;51.068;13.780;2022-12-26T16:07:20;11.60;99.90
6018;DHT22;3037;51.068;13.780;2022-12-26T16:09:51;11.80;99.90
6018;DHT22;3037;51.068;13.780;2022-12-26T16:12:18;11.60;99.90
6018;DHT22;3037;51.068;13.780;2022-12-26T16:14:45;12.10;99.90
6018;DHT22;3037;51.068;13.780;2022-12-26T16:19:44;11.20;99.90
6018;DHT22;3037;51.068;13.780;2022-12-26T16:22:20;11.10;99.90
6018;DHT22;3037;51.068;13.780;2022-12-26T16:25:06;10.90;99.90
6018;DHT22;3037;51.068;13.780;2022-12-26T16:27:35;10.70;99.90
6018;DHT22;3037;51.068;13.780;2022-12-26T16:30:05;10.60;99.90
6018;DHT22;3037;51.068;13.780;2022-12-26T16:32:35;10.50;99.90
6018;DHT22;3037;51.068;13.780;2022-12-26T16:35:01;10.50;99.90
6018;DHT22;3037;51.068;13.780;2022-12-26T16:37:28;10.50;99.90
6018;DHT22;3037;51.068;13.780;2022-12-26T16:40:15;10.50;99.90
6018;DHT22;3037;51.068;13.780;2022-12-26T16:42:54;10.40;99.90
6018;DHT22;3037;51.068;13.780;2022-12-26T16:45:21;10.20;99.90
6018;DHT22;3037;51.068;13.780;2022-12-26T16:47:47;10.10;99.90
6018;DHT22;3037;51.068;13.780;2022-12-26T16:50:16;10.00;99.90
6018;DHT22;3037;51.068;13.780;2022-12-26T16:52:42;10.00;99.90
6018;DHT22;3037;51.068;13.780;2022-12-26T16:55:35;9.90;99.90
6018;DHT22;3037;51.068;13.780;2022-12-26T16:58:10;9.80;99.90
6018;DHT22;3037;51.068;13.780;2022-12-26T17:00:37;9.80;99.90
6018;DHT22;3037;51.068;13.780;2022-12-26T17:03:06;9.70;99.90
6018;DHT22;3037;51.068;13.780;2022-12-26T17:05:35;9.80;99.90
6018;DHT22;3037;51.068;13.780;2022-12-26T17:08:04;9.80;99.90
6018;DHT22;3037;51.068;13.780;2022-12-26T17:10:34;9.80;99.90
6018;DHT22;3037;51.068;13.780;2022-12-26T17:13:04;9.90;99.90
6018;DHT22;3037;51.068;13.780;2022-12-26T17:15:36;9.80;99.90
6018;DHT22;3037;51.068;13.780;2022-12-26T17:21:15;9.80;99.90
6018;DHT22;3037;51.068;13.780;2022-12-26T17:23:41;10.00;99.90
6018;DHT22;3037;51.068;13.780;2022-12-26T17:26:20;10.00;99.90
6018;DHT22;3037;51.068;13.780;2022-12-26T17:28:45;10.00;99.90
6018;DHT22;3037;51.068;13.780;2022-12-26T17:31:15;10.00;99.90
6018;DHT22;3037;51.068;13.780;2022-12-26T17:33:41;10.10;99.90
6018;DHT22;3037;51.068;13.780;2022-12-26T17:36:11;10.20;99.90
6018;DHT22;3037;51.068;13.780;2022-12-26T17:38:38;10.40;99.90
6018;DHT22;3037;51.068;13.780;2022-12-26T17:41:05;10.40;99.90
6018;DHT22;3037;51.068;13.780;2022-12-26T17:43:35;10.40;99.90
6018;DHT22;3037;51.068;13.780;2022-12-26T17:46:01;10.40;99.90
6018;DHT22;3037;51.068;13.780;2022-12-26T17:48:28;10.30;99.90
6018;DHT22;3037;51.068;13.780;2022-12-26T17:51:02;10.30;99.90
6018;DHT22;3037;51.068;13.780;2022-12-26T17:53:34;10.40;99.90
6018;DHT22;3037;51.068;13.780;2022-12-26T17:56:07;10.40;99.90
6018;DHT22;3037;51.068;13.780;2022-12-26T17:58:35;10.30;99.90
6018;DHT22;3037;51.068;13.780;2022-12-26T18:01:00;10.50;99.90
6018;DHT22;3037;51.068;13.780;2022-12-26T18:03:26;10.60;99.90
6018;DHT22;3037;51.068;13.780;2022-12-26T18:05:53;10.60;99.90
6018;DHT22;3037;51.068;13.780;2022-12-26T18:08:27;10.60;99.90
6018;DHT22;3037;51.068;13.780;2022-12-26T18:10:54;10.60;99.90
6018;DHT22;3037;51.068;13.780;2022-12-26T18:13:20;10.60;99.90
6018;DHT22;3037;51.068;13.780;2022-12-26T18:15:46;10.70;99.90
6018;DHT22;3037;51.068;13.780;2022-12-26T18:18:26;10.80;99.90
6018;DHT22;3037;51.068;13.780;2022-12-26T18:20:54;10.80;99.90
6018;DHT22;3037;51.068;13.780;2022-12-26T18:23:19;10.90;99.90
6018;DHT22;3037;51.068;13.780;2022-12-26T18:25:45;10.80;99.90
6018;DHT22;3037;51.068;13.780;2022-12-26T18:28:12;10.80;99.90
6018;DHT22;3037;51.068;13.780;2022-12-26T18:30:39;10.80;99.90
6018;DHT22;3037;51.068;13.780;2022-12-26T18:33:04;10.80;99.90
6018;DHT22;3037;51.068;13.780;2022-12-26T18:35:30;10.80;99.90
6018;DHT22;3037;51.068;13.780;2022-12-26T18:37:56;10.90;99.90
6018;DHT22;3037;51.068;13.780;2022-12-26T18:40:48;10.90;99.90
6018;DHT22;3037;51.068;13.780;2022-12-26T18:43:15;10.80;99.90
6018;DHT22;3037;51.068;13.780;2022-12-26T18:45:41;10.70;99.90
6018;DHT22;3037;51.068;13.780;2022-12-26T18:48:10;10.80;99.90
6018;DHT22;3037;51.068;13.780;2022-12-26T18:50:36;10.80;99.90
6018;DHT22;3037;51.068;13.780;2022-12-26T18:53:02;10.80;99.90
6018;DHT22;3037;51.068;13.780;2022-12-26T18:55:27;10.80;99.90
6018;DHT22;3037;51.068;13.780;2022-12-26T18:57:53;10.90;99.90
6018;DHT22;3037;51.068;13.780;2022-12-26T19:00:20;11.00;99.90
6018;DHT22;3037;51.068;13.780;2022-12-26T19:02:46;11.10;99.90
6018;DHT22;3037;51.068;13.780;2022-12-26T19:07:42;10.90;99.90
6018;DHT22;3037;51.068;13.780;2022-12-26T19:10:09;10.90;99.90
6018;DHT22;3037;51.068;13.780;2022-12-26T19:12:34;10.90;99.90
6018;DHT22;3037;51.068;13.780;2022-12-26T19:15:00;10.80;99.90
6018;DHT22;3037;51.068;13.780;2022-12-26T19:17:25;10.70;99.90